createdAt,value
2019-05-20T00:00:40.161Z,77.70
2019-05-20T00:03:09.957Z,77.24
2019-05-20T00:05:39.765Z,77.84
2019-05-20T00:08:09.433Z,78.18
2019-05-20T00:10:39.053Z,78.45
2019-05-20T00:13:08.703Z,78.76
2019-05-20T00:15:38.396Z,78.75
2019-05-20T00:18:08.051Z,78.35
2019-05-20T00:20:37.671Z,77.51
2019-05-20T00:23:07.340Z,77.34
2019-05-20T00:25:37.015Z,77.50
2019-05-20T00:28:06.630Z,78.07
2019-05-20T00:30:36.293Z,77.95
2019-05-20T00:33:05.993Z,78.20
2019-05-20T00:35:36.040Z,78.20
2019-05-20T00:38:05.667Z,77.70
2019-05-20T00:40:35.460Z,77.85
2019-05-20T00:43:05.086Z,77.77
2019-05-20T00:45:34.803Z,77.84
2019-05-20T00:48:04.422Z,77.78
2019-05-20T00:50:35.403Z,77.87
2019-05-20T00:53:05.094Z,77.83
2019-05-20T00:55:36.882Z,77.93
2019-05-20T00:58:06.529Z,77.97
2019-05-20T01:00:36.929Z,78.21
2019-05-20T01:03:06.721Z,78.45
2019-05-20T01:05:36.342Z,78.79
2019-05-20T01:08:06.057Z,79.01
2019-05-20T01:10:35.685Z,78.72
2019-05-20T01:13:08.020Z,78.99
2019-05-20T01:15:37.645Z,78.93
2019-05-20T01:18:07.312Z,78.97
2019-05-20T01:20:36.949Z,78.72
2019-05-20T01:23:06.841Z,78.40
2019-05-20T01:25:36.483Z,78.38
2019-05-20T01:28:06.106Z,78.70
2019-05-20T01:30:35.814Z,78.41
2019-05-20T01:33:13.933Z,78.75
2019-05-20T01:35:36.881Z,78.80
2019-05-20T01:38:06.507Z,78.91
2019-05-20T01:40:36.149Z,78.81
2019-05-20T01:43:05.785Z,78.87
2019-05-20T01:45:35.433Z,79.01
2019-05-20T01:48:05.079Z,78.77
2019-05-20T01:50:34.770Z,78.87
2019-05-20T01:53:04.429Z,78.58
2019-05-20T01:55:34.042Z,78.01
2019-05-20T01:58:03.691Z,78.19
2019-05-20T02:00:33.324Z,78.44
2019-05-20T02:03:02.962Z,78.60
2019-05-20T02:05:32.593Z,78.62
2019-05-20T02:08:02.604Z,78.35
2019-05-20T02:10:32.224Z,78.48
2019-05-20T02:13:01.844Z,78.84
2019-05-20T02:15:33.132Z,78.93
2019-05-20T02:18:02.749Z,78.83
2019-05-20T02:20:32.401Z,79.18
2019-05-20T02:23:15.474Z,79.18
2019-05-20T02:25:47.513Z,79.27
2019-05-20T02:28:17.475Z,79.17
2019-05-20T02:30:47.191Z,79.31
2019-05-20T02:33:16.817Z,79.36
2019-05-20T02:35:46.524Z,79.49
2019-05-20T02:38:16.144Z,79.97
2019-05-20T02:40:45.838Z,79.98
2019-05-20T02:43:15.695Z,79.63
2019-05-20T02:45:45.383Z,79.73
2019-05-20T02:48:15.101Z,79.68
2019-05-20T02:50:44.727Z,80.16
2019-05-20T02:53:14.441Z,80.06
2019-05-20T02:55:44.095Z,79.97
2019-05-20T02:58:13.792Z,79.63
2019-05-20T03:00:43.485Z,79.18
2019-05-20T03:03:13.134Z,79.11
2019-05-20T03:05:42.825Z,78.99
2019-05-20T03:08:12.444Z,78.94
2019-05-20T03:10:42.763Z,78.99
2019-05-20T03:13:12.454Z,79.00
2019-05-20T03:15:42.100Z,78.95
2019-05-20T03:18:11.727Z,78.89
2019-05-20T03:20:41.393Z,79.47
2019-05-20T03:23:11.614Z,79.19
2019-05-20T03:25:41.581Z,79.00
2019-05-20T03:28:11.298Z,79.04
2019-05-20T03:30:40.941Z,79.74
2019-05-20T03:33:10.562Z,79.79
2019-05-20T03:35:40.261Z,79.79
2019-05-20T03:38:09.900Z,79.59
2019-05-20T03:40:39.510Z,79.28
2019-05-20T03:43:09.237Z,79.01
2019-05-20T03:45:38.858Z,78.71
2019-05-20T03:48:08.510Z,79.03
2019-05-20T03:50:38.142Z,79.33
2019-05-20T03:53:07.793Z,79.26
2019-05-20T03:55:37.395Z,79.44
2019-05-20T03:58:07.038Z,79.13
2019-05-20T04:00:49.459Z,79.32
2019-05-20T04:03:19.282Z,79.05
2019-05-20T04:05:49.116Z,78.90
2019-05-20T04:08:18.742Z,78.81
2019-05-20T04:10:48.390Z,79.02
2019-05-20T04:13:18.155Z,78.90
2019-05-20T04:15:47.807Z,78.98
2019-05-20T04:18:17.500Z,79.02
2019-05-20T04:20:47.162Z,78.84
2019-05-20T04:23:16.844Z,78.87
2019-05-20T04:25:46.503Z,78.12
2019-05-20T04:28:16.165Z,78.12
2019-05-20T04:30:45.826Z,78.15
2019-05-20T04:33:15.549Z,78.38
2019-05-20T04:35:49.486Z,78.69
2019-05-20T04:38:16.541Z,78.65
2019-05-20T04:40:46.175Z,78.79
2019-05-20T04:43:15.815Z,78.80
2019-05-20T04:45:45.567Z,78.47
2019-05-20T04:48:15.226Z,78.86
2019-05-20T04:50:44.848Z,78.86
2019-05-20T04:53:14.524Z,79.07
2019-05-20T04:55:44.178Z,78.74
2019-05-20T04:58:13.776Z,78.78
2019-05-20T05:00:53.002Z,78.54
2019-05-20T05:03:23.797Z,78.65
2019-05-20T05:05:53.773Z,78.45
2019-05-20T05:08:23.920Z,78.21
2019-05-20T05:10:53.884Z,78.17
2019-05-20T05:13:24.707Z,78.42
2019-05-20T05:15:54.553Z,78.56
2019-05-20T05:18:24.389Z,78.78
2019-05-20T05:20:54.257Z,79.16
2019-05-20T05:23:24.586Z,79.27
2019-05-20T05:25:54.415Z,79.07
2019-05-20T05:28:24.194Z,78.62
2019-05-20T05:30:54.193Z,78.68
2019-05-20T05:33:23.907Z,79.41
2019-05-20T05:35:53.981Z,79.28
2019-05-20T05:38:23.830Z,79.62
2019-05-20T05:40:53.591Z,79.46
2019-05-20T05:43:23.235Z,79.42
2019-05-20T05:45:52.859Z,79.07
2019-05-20T05:48:23.027Z,79.37
2019-05-20T05:50:52.713Z,79.14
2019-05-20T05:53:22.411Z,79.41
2019-05-20T05:55:52.061Z,79.57
2019-05-20T05:58:21.685Z,78.93
2019-05-20T06:00:51.414Z,79.16
2019-05-20T06:03:21.043Z,79.44
2019-05-20T06:05:50.670Z,79.14
2019-05-20T06:08:20.325Z,79.90
2019-05-20T06:10:50.006Z,79.57
2019-05-20T06:13:19.627Z,79.32
2019-05-20T06:15:49.276Z,79.79
2019-05-20T06:18:18.900Z,79.38
2019-05-20T06:20:48.575Z,79.31
2019-05-20T06:23:18.204Z,79.55
2019-05-20T06:25:47.837Z,79.64
2019-05-20T06:28:17.485Z,79.27
2019-05-20T06:30:47.742Z,79.19
2019-05-20T06:33:17.554Z,80.00
2019-05-20T06:35:47.912Z,79.51
2019-05-20T06:38:19.940Z,78.94
2019-05-20T06:40:49.569Z,79.00
2019-05-20T06:43:19.329Z,78.80
2019-05-20T06:45:48.945Z,78.95
2019-05-20T06:48:18.609Z,78.78
2019-05-20T06:50:48.225Z,79.21
2019-05-20T06:53:17.845Z,78.98
2019-05-20T06:55:47.492Z,79.40
2019-05-20T06:58:17.126Z,79.28
2019-05-20T07:00:46.769Z,79.10
2019-05-20T07:03:16.391Z,78.53
2019-05-20T07:05:46.099Z,79.08
2019-05-20T07:08:15.716Z,78.44
2019-05-20T07:10:46.033Z,78.73
2019-05-20T07:13:16.293Z,79.26
2019-05-20T07:15:46.286Z,78.88
2019-05-20T07:18:15.916Z,79.15
2019-05-20T07:20:45.591Z,78.43
2019-05-20T07:23:15.209Z,79.05
2019-05-20T07:25:44.832Z,78.59
2019-05-20T07:28:14.553Z,78.69
2019-05-20T07:30:44.417Z,79.51
2019-05-20T07:33:14.139Z,80.00
2019-05-20T07:35:44.330Z,79.44
2019-05-20T07:38:13.976Z,80.69
2019-05-20T07:40:43.605Z,80.95
2019-05-20T07:43:13.325Z,80.43
2019-05-20T07:45:43.750Z,80.19
2019-05-20T07:48:13.717Z,80.55
2019-05-20T07:50:44.366Z,79.76
2019-05-20T07:53:14.976Z,78.85
2019-05-20T07:55:58.253Z,79.63
2019-05-20T07:58:33.752Z,79.27
2019-05-20T08:01:03.809Z,79.36
2019-05-20T08:03:33.485Z,79.85
2019-05-20T08:06:03.140Z,79.00
2019-05-20T08:08:33.129Z,78.24
2019-05-20T08:11:03.042Z,78.50
2019-05-20T08:13:32.734Z,79.25
2019-05-20T08:16:02.409Z,78.57
2019-05-20T08:18:32.105Z,78.16
2019-05-20T08:21:01.753Z,78.56
2019-05-20T08:23:31.376Z,78.69
2019-05-20T08:26:01.217Z,78.76
2019-05-20T08:28:30.999Z,78.78
2019-05-20T08:31:00.612Z,79.07
2019-05-20T08:33:30.457Z,79.32
2019-05-20T08:36:00.122Z,80.13
2019-05-20T08:38:29.787Z,79.69
2019-05-20T08:40:59.505Z,79.74
2019-05-20T08:43:29.193Z,79.05
2019-05-20T08:45:58.855Z,79.31
2019-05-20T08:48:28.533Z,79.98
2019-05-20T08:50:58.206Z,80.07
2019-05-20T08:53:27.904Z,78.28
2019-05-20T08:55:57.534Z,79.08
2019-05-20T08:58:27.143Z,79.12
2019-05-20T09:00:56.798Z,79.15
2019-05-20T09:03:30.178Z,79.14
2019-05-20T09:05:57.937Z,78.62
2019-05-20T09:08:27.763Z,79.25
2019-05-20T09:10:57.422Z,80.66
2019-05-20T09:13:27.221Z,80.26
2019-05-20T09:15:56.896Z,80.21
2019-05-20T09:18:26.515Z,79.82
2019-05-20T09:20:56.162Z,80.33
2019-05-20T09:23:25.796Z,80.42
2019-05-20T09:25:55.461Z,79.79
2019-05-20T09:28:25.859Z,79.90
2019-05-20T09:30:55.963Z,80.49
2019-05-20T09:33:26.779Z,81.33
2019-05-20T09:35:56.465Z,81.54
2019-05-20T09:38:26.122Z,80.10
2019-05-20T09:40:55.796Z,79.37
2019-05-20T09:43:25.481Z,80.30
2019-05-20T09:46:06.146Z,79.45
2019-05-20T09:48:26.492Z,79.79
2019-05-20T09:50:56.191Z,79.18
2019-05-20T09:53:25.910Z,78.72
2019-05-20T09:55:55.561Z,79.72
2019-05-20T09:58:25.285Z,79.18
2019-05-20T10:00:55.040Z,79.31
2019-05-20T10:03:24.711Z,80.25
2019-05-20T10:05:54.411Z,80.61
2019-05-20T10:08:37.527Z,80.12
2019-05-20T10:10:59.424Z,80.49
2019-05-20T10:13:26.955Z,79.63
2019-05-20T10:15:56.606Z,79.58
2019-05-20T10:18:36.716Z,79.77
2019-05-20T10:20:57.674Z,79.65
2019-05-20T10:23:27.309Z,79.54
2019-05-20T10:25:57.028Z,79.53
2019-05-20T10:28:26.640Z,79.12
2019-05-20T10:30:56.322Z,78.60
2019-05-20T10:33:26.067Z,77.30
2019-05-20T10:35:55.715Z,76.58
2019-05-20T10:38:25.336Z,77.63
2019-05-20T10:40:55.005Z,78.85
2019-05-20T10:43:24.625Z,78.27
2019-05-20T10:45:54.300Z,77.48
2019-05-20T10:48:23.934Z,77.74
2019-05-20T10:50:53.632Z,77.96
2019-05-20T10:53:23.363Z,76.89
2019-05-20T10:55:52.995Z,77.32
2019-05-20T10:58:22.665Z,77.37
2019-05-20T11:01:02.512Z,77.73
2019-05-20T11:03:23.806Z,77.09
2019-05-20T11:05:53.496Z,77.69
2019-05-20T11:08:23.224Z,78.04
2019-05-20T11:10:52.968Z,77.94
2019-05-20T11:13:22.657Z,78.63
2019-05-20T11:15:52.372Z,78.27
2019-05-20T11:18:22.229Z,78.43
2019-05-20T11:20:51.932Z,79.50
2019-05-20T11:23:21.562Z,78.03
2019-05-20T11:25:51.209Z,79.65
2019-05-20T11:28:20.829Z,79.70
2019-05-20T11:30:50.474Z,79.40
2019-05-20T11:33:20.097Z,79.73
2019-05-20T11:35:49.747Z,79.69
2019-05-20T11:38:19.448Z,79.62
2019-05-20T11:40:49.181Z,80.53
2019-05-20T11:43:18.942Z,80.93
2019-05-20T11:45:48.610Z,81.30
2019-05-20T11:48:18.233Z,81.68
2019-05-20T11:50:47.862Z,81.90
2019-05-20T11:53:17.760Z,80.93
2019-05-20T11:55:47.392Z,80.73
2019-05-20T11:58:17.050Z,80.74
2019-05-20T12:00:46.741Z,81.49
2019-05-20T12:03:16.394Z,80.71
2019-05-20T12:05:46.117Z,81.50
2019-05-20T12:08:15.754Z,81.29
2019-05-20T12:10:45.846Z,81.07
2019-05-20T12:13:15.503Z,81.12
2019-05-20T12:15:45.130Z,81.33
2019-05-20T12:18:14.792Z,81.65
2019-05-20T12:20:48.543Z,82.27
2019-05-20T12:23:18.168Z,82.66
2019-05-20T12:25:47.890Z,81.80
2019-05-20T12:28:17.510Z,81.88
2019-05-20T12:30:47.168Z,81.95
2019-05-20T12:33:19.067Z,82.73
2019-05-20T12:35:48.177Z,83.15
2019-05-20T12:38:17.814Z,83.44
2019-05-20T12:40:47.456Z,83.04
2019-05-20T12:43:17.078Z,82.10
2019-05-20T12:45:46.796Z,82.15
2019-05-20T12:48:16.421Z,81.55
2019-05-20T12:50:46.073Z,81.79
2019-05-20T12:53:15.700Z,82.67
2019-05-20T12:55:45.422Z,81.96
2019-05-20T12:58:15.045Z,81.87
2019-05-20T13:00:44.970Z,82.24
2019-05-20T13:03:14.599Z,81.52
2019-05-20T13:05:44.237Z,82.18
2019-05-20T13:08:13.909Z,82.22
2019-05-20T13:10:43.527Z,82.92
2019-05-20T13:13:13.180Z,82.43
2019-05-20T13:15:42.812Z,83.26
2019-05-20T13:18:12.452Z,83.38
2019-05-20T13:20:42.089Z,83.71
2019-05-20T13:23:13.924Z,83.63
2019-05-20T13:25:43.126Z,80.99
2019-05-20T13:28:12.795Z,80.91
2019-05-20T13:30:42.426Z,81.45
2019-05-20T13:33:12.122Z,80.83
2019-05-20T13:35:41.773Z,81.33
2019-05-20T13:38:11.409Z,81.85
2019-05-20T13:40:46.223Z,82.42
2019-05-20T13:43:12.412Z,83.24
2019-05-20T13:45:42.063Z,79.88
2019-05-20T13:48:11.692Z,78.02
2019-05-20T13:50:41.366Z,78.13
2019-05-20T13:53:10.981Z,77.85
2019-05-20T13:55:40.634Z,77.13
2019-05-20T13:58:10.333Z,76.29
2019-05-20T14:00:39.967Z,76.49
2019-05-20T14:03:09.688Z,76.71
2019-05-20T14:05:39.315Z,76.62
2019-05-20T14:08:09.029Z,77.73
2019-05-20T14:10:38.782Z,77.28
2019-05-20T14:13:08.431Z,77.68
2019-05-20T14:15:38.092Z,79.22
2019-05-20T14:18:07.848Z,79.72
2019-05-20T14:20:37.476Z,78.93
2019-05-20T14:23:07.098Z,76.64
2019-05-20T14:25:36.745Z,77.81
2019-05-20T14:28:06.449Z,78.43
2019-05-20T14:30:36.180Z,79.26
2019-05-20T14:33:05.797Z,76.35
2019-05-20T14:35:35.441Z,77.44
2019-05-20T14:38:05.071Z,79.25
2019-05-20T14:40:34.750Z,80.18
2019-05-20T14:43:04.378Z,79.50
2019-05-20T14:45:34.022Z,79.12
2019-05-20T14:48:03.791Z,80.32
2019-05-20T14:50:33.564Z,79.25
2019-05-20T14:53:03.226Z,79.47
2019-05-20T14:55:41.834Z,77.92
2019-05-20T14:58:04.269Z,77.45
2019-05-20T15:00:33.901Z,76.92
2019-05-20T15:03:03.544Z,78.03
2019-05-20T15:05:33.219Z,78.00
2019-05-20T15:08:02.941Z,79.33
2019-05-20T15:10:32.833Z,77.77
2019-05-20T15:13:04.517Z,77.29
2019-05-20T15:15:34.749Z,76.60
2019-05-20T15:18:04.419Z,76.73
2019-05-20T15:20:34.075Z,77.56
2019-05-20T15:23:05.461Z,78.31
2019-05-20T15:25:35.215Z,79.47
2019-05-20T15:28:04.931Z,78.95
2019-05-20T15:30:34.584Z,79.02
2019-05-20T15:33:07.081Z,79.82
2019-05-20T15:35:36.741Z,80.15
2019-05-20T15:38:06.387Z,79.32
2019-05-20T15:40:36.023Z,78.07
2019-05-20T15:43:05.807Z,78.95
2019-05-20T15:45:35.429Z,78.91
2019-05-20T15:48:05.153Z,78.73
2019-05-20T15:50:34.780Z,79.74
2019-05-20T15:53:04.516Z,80.09
2019-05-20T15:55:34.211Z,79.59
2019-05-20T15:58:04.030Z,78.57
2019-05-20T16:00:33.928Z,79.86
2019-05-20T16:03:03.585Z,80.61
2019-05-20T16:05:33.281Z,80.49
2019-05-20T16:08:03.691Z,80.58
2019-05-20T16:10:33.374Z,81.33
2019-05-20T16:13:03.076Z,82.11
2019-05-20T16:15:32.727Z,80.91
2019-05-20T16:18:02.463Z,81.36
2019-05-20T16:20:32.359Z,82.14
2019-05-20T16:23:01.995Z,82.91
2019-05-20T16:25:31.644Z,83.13
2019-05-20T16:28:01.276Z,83.16
2019-05-20T16:30:30.928Z,83.10
2019-05-20T16:33:00.636Z,82.55
2019-05-20T16:35:30.328Z,82.67
2019-05-20T16:37:59.988Z,82.52
2019-05-20T16:40:29.621Z,82.51
2019-05-20T16:42:59.296Z,81.41
2019-05-20T16:45:28.919Z,81.89
2019-05-20T16:47:58.569Z,81.93
2019-05-20T16:50:28.197Z,82.54
2019-05-20T16:52:57.912Z,82.67
2019-05-20T16:55:27.559Z,82.70
2019-05-20T16:57:57.212Z,82.46
2019-05-20T17:00:32.201Z,82.46
2019-05-20T17:02:58.370Z,82.34
2019-05-20T17:05:27.999Z,83.07
2019-05-20T17:07:57.623Z,83.03
2019-05-20T17:10:27.268Z,83.15
2019-05-20T17:12:56.966Z,83.12
2019-05-20T17:15:26.620Z,82.66
2019-05-20T17:17:56.244Z,81.70
2019-05-20T17:20:25.974Z,81.69
2019-05-20T17:22:55.595Z,81.25
2019-05-20T17:25:25.359Z,81.44
2019-05-20T17:27:55.176Z,81.32
2019-05-20T17:30:24.940Z,81.55
2019-05-20T17:32:54.600Z,81.83
2019-05-20T17:35:24.237Z,81.81
2019-05-20T17:37:55.307Z,82.10
2019-05-20T17:40:25.339Z,82.75
2019-05-20T17:42:55.059Z,82.88
2019-05-20T17:45:24.691Z,82.43
2019-05-20T17:47:54.440Z,82.33
2019-05-20T17:50:24.210Z,80.14
2019-05-20T17:52:53.885Z,80.00
2019-05-20T17:55:23.772Z,80.55
2019-05-20T17:57:54.094Z,81.34
2019-05-20T18:00:23.944Z,81.17
2019-05-20T18:02:53.781Z,81.27
2019-05-20T18:05:23.507Z,81.33
2019-05-20T18:07:53.201Z,81.48
2019-05-20T18:10:24.497Z,81.48
2019-05-20T18:12:54.202Z,81.83
2019-05-20T18:15:24.066Z,80.73
2019-05-20T18:17:53.691Z,81.17
2019-05-20T18:20:23.556Z,80.63
2019-05-20T18:22:53.187Z,81.04
2019-05-20T18:25:22.865Z,80.95
2019-05-20T18:27:52.607Z,80.96
2019-05-20T18:30:22.566Z,81.14
2019-05-20T18:32:52.222Z,80.99
2019-05-20T18:35:21.990Z,81.13
2019-05-20T18:37:51.650Z,81.30
2019-05-20T18:40:21.480Z,81.29
2019-05-20T18:42:51.131Z,80.58
2019-05-20T18:45:20.840Z,80.92
2019-05-20T18:47:50.547Z,81.26
2019-05-20T18:50:20.484Z,81.16
2019-05-20T18:52:50.139Z,81.20
2019-05-20T18:55:19.940Z,81.32
2019-05-20T18:57:49.678Z,81.43
2019-05-20T19:00:19.673Z,81.34
2019-05-20T19:02:49.305Z,81.71
2019-05-20T19:05:19.192Z,81.14
2019-05-20T19:07:49.096Z,81.14
2019-05-20T19:10:19.095Z,81.21
2019-05-20T19:12:48.742Z,81.41
2019-05-20T19:15:18.641Z,81.71
2019-05-20T19:17:48.272Z,80.81
2019-05-20T19:20:17.988Z,80.87
2019-05-20T19:22:47.616Z,81.02
2019-05-20T19:25:17.354Z,81.35
2019-05-20T19:27:46.976Z,81.02
2019-05-20T19:30:17.507Z,80.97
2019-05-20T19:32:47.151Z,80.92
2019-05-20T19:35:16.848Z,81.03
2019-05-20T19:37:46.535Z,80.47
2019-05-20T19:40:16.399Z,81.02
2019-05-20T19:42:46.075Z,81.40
2019-05-20T19:45:15.935Z,81.15
2019-05-20T19:47:45.667Z,81.13
2019-05-20T19:50:17.359Z,80.69
2019-05-20T19:52:47.405Z,80.68
2019-05-20T19:55:18.949Z,80.35
2019-05-20T19:57:48.585Z,80.42
2019-05-20T20:00:18.655Z,80.71
2019-05-20T20:02:48.280Z,80.91
2019-05-20T20:05:18.036Z,81.03
2019-05-20T20:07:47.672Z,81.29
2019-05-20T20:10:17.462Z,79.94
2019-05-20T20:12:47.092Z,80.33
2019-05-20T20:15:20.805Z,80.88
2019-05-20T20:17:50.493Z,80.62
2019-05-20T20:20:20.152Z,80.42
2019-05-20T20:22:49.785Z,80.70
2019-05-20T20:25:19.662Z,80.90
2019-05-20T20:27:49.281Z,80.65
2019-05-20T20:30:19.313Z,81.04
2019-05-20T20:32:48.977Z,80.29
2019-05-20T20:35:18.813Z,80.44
2019-05-20T20:37:48.483Z,80.68
2019-05-20T20:40:18.941Z,80.41
2019-05-20T20:42:48.609Z,80.63
2019-05-20T20:45:18.386Z,80.85
2019-05-20T20:47:48.013Z,80.92
2019-05-20T20:50:18.578Z,80.68
2019-05-20T20:52:48.280Z,80.93
2019-05-20T20:55:18.005Z,80.59
2019-05-20T20:57:47.625Z,81.11
2019-05-20T21:00:17.784Z,80.89
2019-05-20T21:02:53.094Z,81.27
2019-05-20T21:05:19.165Z,81.11
2019-05-20T21:07:51.669Z,80.24
2019-05-20T21:10:20.288Z,80.91
2019-05-20T21:12:49.935Z,80.50
2019-05-20T21:15:19.560Z,80.36
2019-05-20T21:17:49.219Z,80.28
2019-05-20T21:20:18.837Z,80.73
2019-05-20T21:22:48.487Z,80.91
2019-05-20T21:25:18.187Z,81.10
2019-05-20T21:27:47.836Z,80.85
2019-05-20T21:30:17.604Z,80.86
2019-05-20T21:32:47.267Z,80.68
2019-05-20T21:35:16.897Z,81.14
2019-05-20T21:37:46.545Z,81.08
2019-05-20T21:40:16.373Z,80.97
2019-05-20T21:42:45.996Z,80.67
2019-05-20T21:45:15.863Z,80.80
2019-05-20T21:47:45.488Z,80.90
2019-05-20T21:50:15.353Z,80.97
2019-05-20T21:52:44.976Z,81.25
2019-05-20T21:55:14.845Z,81.24
2019-05-20T21:57:44.474Z,81.33
2019-05-20T22:00:19.050Z,81.50
2019-05-20T22:02:48.756Z,81.51
2019-05-20T22:05:18.455Z,81.09
2019-05-20T22:07:48.114Z,81.27
2019-05-20T22:10:17.808Z,80.48
2019-05-20T22:12:47.463Z,80.57
2019-05-20T22:15:17.091Z,80.75
2019-05-20T22:17:46.814Z,80.99
2019-05-20T22:20:16.750Z,81.05
2019-05-20T22:22:46.245Z,81.12
2019-05-20T22:25:15.936Z,81.41
2019-05-20T22:27:45.572Z,81.75
2019-05-20T22:30:15.767Z,81.71
2019-05-20T22:32:45.391Z,81.47
2019-05-20T22:35:15.119Z,81.29
2019-05-20T22:37:44.760Z,81.48
2019-05-20T22:40:14.709Z,81.14
2019-05-20T22:42:44.334Z,81.64
2019-05-20T22:45:14.146Z,80.97
2019-05-20T22:47:43.760Z,81.32
2019-05-20T22:50:13.413Z,81.68
2019-05-20T22:52:43.050Z,82.18
2019-05-20T22:55:12.892Z,82.30
2019-05-20T22:57:42.583Z,82.18
2019-05-20T23:00:12.614Z,81.82
2019-05-20T23:02:42.340Z,82.13
2019-05-20T23:05:12.175Z,81.62
2019-05-20T23:07:41.829Z,81.82
2019-05-20T23:10:11.992Z,82.27
2019-05-20T23:12:41.709Z,82.39
2019-05-20T23:15:12.254Z,82.11
2019-05-20T23:17:41.966Z,82.49
2019-05-20T23:20:11.746Z,82.47
2019-05-20T23:22:41.394Z,82.30
2019-05-20T23:25:11.331Z,82.18
2019-05-20T23:27:40.991Z,82.18
2019-05-20T23:30:11.332Z,81.99
2019-05-20T23:32:40.957Z,82.32
2019-05-20T23:35:11.115Z,81.94
2019-05-20T23:37:40.740Z,82.19
2019-05-20T23:40:11.409Z,82.28
2019-05-20T23:42:41.039Z,82.15
2019-05-20T23:45:11.586Z,81.78
2019-05-20T23:47:41.210Z,81.04
2019-05-20T23:50:11.306Z,81.30
2019-05-20T23:52:40.922Z,80.94
2019-05-20T23:55:11.173Z,81.33
2019-05-20T23:57:40.802Z,81.18
